sensor_id;sensor_type;location;lat;lon;timestamp;pressure;altitude;pressure_sealevel;temperature;humidity
3444;BME280;1736;52.068;6.968;2023-07-28T00:02:11;99920.75;;;17.57;100.00
3444;BME280;1736;52.068;6.968;2023-07-28T00:04:37;99926.50;;;17.54;100.00
3444;BME280;1736;52.068;6.968;2023-07-28T00:07:04;99918.63;;;17.53;100.00
3444;BME280;1736;52.068;6.968;2023-07-28T00:09:31;99933.91;;;17.52;100.00
3444;BME280;1736;52.068;6.968;2023-07-28T00:11:58;99936.41;;;17.54;100.00
3444;BME280;1736;52.068;6.968;2023-07-28T00:14:26;99928.53;;;17.52;100.00
3444;BME280;1736;52.068;6.968;2023-07-28T00:16:55;99935.56;;;17.53;100.00
3444;BME280;1736;52.068;6.968;2023-07-28T00:19:21;99944.91;;;17.57;100.00
3444;BME280;1736;52.068;6.968;2023-07-28T00:21:48;99935.19;;;17.56;100.00
3444;BME280;1736;52.068;6.968;2023-07-28T00:24:14;99929.47;;;17.59;100.00
3444;BME280;1736;52.068;6.968;2023-07-28T00:26:41;99933.13;;;17.58;100.00
3444;BME280;1736;52.068;6.968;2023-07-28T00:29:07;99933.06;;;17.52;100.00
3444;BME280;1736;52.068;6.968;2023-07-28T00:31:35;99931.59;;;17.49;100.00
3444;BME280;1736;52.068;6.968;2023-07-28T00:34:02;99928.28;;;17.47;100.00
3444;BME280;1736;52.068;6.968;2023-07-28T00:36:29;99926.00;;;17.44;100.00
3444;BME280;1736;52.068;6.968;2023-07-28T00:38:56;99928.28;;;17.47;100.00
3444;BME280;1736;52.068;6.968;2023-07-28T00:41:22;99921.84;;;17.42;100.00
3444;BME280;1736;52.068;6.968;2023-07-28T00:43:49;99929.09;;;17.48;100.00
3444;BME280;1736;52.068;6.968;2023-07-28T00:46:16;99928.66;;;17.44;100.00
3444;BME280;1736;52.068;6.968;2023-07-28T00:48:44;99933.56;;;17.41;100.00
3444;BME280;1736;52.068;6.968;2023-07-28T00:51:11;99929.03;;;17.41;100.00
3444;BME280;1736;52.068;6.968;2023-07-28T00:53:38;99926.50;;;17.40;100.00
3444;BME280;1736;52.068;6.968;2023-07-28T00:56:05;99924.97;;;17.45;100.00
3444;BME280;1736;52.068;6.968;2023-07-28T00:58:32;99926.34;;;17.41;100.00
3444;BME280;1736;52.068;6.968;2023-07-28T01:00:59;99930.97;;;17.47;100.00
3444;BME280;1736;52.068;6.968;2023-07-28T01:03:25;99925.81;;;17.46;100.00
3444;BME280;1736;52.068;6.968;2023-07-28T01:06:00;99930.13;;;17.47;100.00
3444;BME280;1736;52.068;6.968;2023-07-28T01:08:38;99922.72;;;17.49;100.00
3444;BME280;1736;52.068;6.968;2023-07-28T01:11:07;99925.50;;;17.41;100.00
3444;BME280;1736;52.068;6.968;2023-07-28T01:13:34;99926.69;;;17.38;100.00
3444;BME280;1736;52.068;6.968;2023-07-28T01:16:00;99922.91;;;17.33;100.00
3444;BME280;1736;52.068;6.968;2023-07-28T01:18:27;99917.97;;;17.30;100.00
3444;BME280;1736;52.068;6.968;2023-07-28T01:20:57;99918.41;;;17.33;100.00
3444;BME280;1736;52.068;6.968;2023-07-28T01:23:36;99917.19;;;17.36;100.00
3444;BME280;1736;52.068;6.968;2023-07-28T01:26:05;99920.63;;;17.44;100.00
3444;BME280;1736;52.068;6.968;2023-07-28T01:28:36;99926.00;;;17.44;100.00
3444;BME280;1736;52.068;6.968;2023-07-28T01:31:05;99915.63;;;17.41;100.00
3444;BME280;1736;52.068;6.968;2023-07-28T01:33:32;99915.63;;;17.41;100.00
3444;BME280;1736;52.068;6.968;2023-07-28T01:35:59;99919.34;;;17.40;100.00
3444;BME280;1736;52.068;6.968;2023-07-28T01:38:26;99914.31;;;17.37;100.00
3444;BME280;1736;52.068;6.968;2023-07-28T01:40:53;99919.06;;;17.35;100.00
3444;BME280;1736;52.068;6.968;2023-07-28T01:43:19;99915.25;;;17.44;100.00
3444;BME280;1736;52.068;6.968;2023-07-28T01:45:47;99914.31;;;17.37;100.00
3444;BME280;1736;52.068;6.968;2023-07-28T01:48:14;99921.34;;;17.38;100.00
3444;BME280;1736;52.068;6.968;2023-07-28T01:50:40;99921.75;;;17.35;100.00
3444;BME280;1736;52.068;6.968;2023-07-28T01:53:07;99922.56;;;17.36;100.00
3444;BME280;1736;52.068;6.968;2023-07-28T01:55:34;99914.78;;;17.41;100.00
3444;BME280;1736;52.068;6.968;2023-07-28T01:58:01;99918.97;;;17.43;100.00
3444;BME280;1736;52.068;6.968;2023-07-28T02:00:28;99912.38;;;17.46;100.00
3444;BME280;1736;52.068;6.968;2023-07-28T02:02:56;99914.09;;;17.53;100.00
3444;BME280;1736;52.068;6.968;2023-07-28T02:05:24;99919.03;;;17.50;100.00
3444;BME280;1736;52.068;6.968;2023-07-28T02:07:50;99916.91;;;17.45;100.00
3444;BME280;1736;52.068;6.968;2023-07-28T02:10:17;99917.34;;;17.49;100.00
3444;BME280;1736;52.068;6.968;2023-07-28T02:12:44;99912.56;;;17.44;100.00
3444;BME280;1736;52.068;6.968;2023-07-28T02:15:11;99914.09;;;17.53;100.00
3444;BME280;1736;52.068;6.968;2023-07-28T02:17:38;99917.88;;;17.59;100.00
3444;BME280;1736;52.068;6.968;2023-07-28T02:20:07;99920.75;;;17.57;100.00
3444;BME280;1736;52.068;6.968;2023-07-28T02:22:36;99932.31;;;17.58;100.00
3444;BME280;1736;52.068;6.968;2023-07-28T02:25:03;99931.59;;;17.70;100.00
3444;BME280;1736;52.068;6.968;2023-07-28T02:27:29;99930.63;;;17.57;100.00
3444;BME280;1736;52.068;6.968;2023-07-28T02:29:56;99928.44;;;17.60;100.00
3444;BME280;1736;52.068;6.968;2023-07-28T02:32:23;99929.06;;;17.62;100.00
3444;BME280;1736;52.068;6.968;2023-07-28T02:34:49;99930.69;;;17.63;100.00
3444;BME280;1736;52.068;6.968;2023-07-28T02:37:17;99927.66;;;17.66;100.00
3444;BME280;1736;52.068;6.968;2023-07-28T02:39:44;99931.59;;;17.70;100.00
3444;BME280;1736;52.068;6.968;2023-07-28T02:42:11;99929.72;;;17.64;100.00
3444;BME280;1736;52.068;6.968;2023-07-28T02:44:38;99939.84;;;17.69;100.00
3444;BME280;1736;52.068;6.968;2023-07-28T02:47:05;99934.03;;;17.65;100.00
3444;BME280;1736;52.068;6.968;2023-07-28T02:49:32;99944.53;;;17.60;100.00
3444;BME280;1736;52.068;6.968;2023-07-28T02:51:58;99947.47;;;17.65;100.00
3444;BME280;1736;52.068;6.968;2023-07-28T02:54:27;99942.53;;;17.69;100.00
3444;BME280;1736;52.068;6.968;2023-07-28T02:56:54;99944.00;;;17.71;100.00
3444;BME280;1736;52.068;6.968;2023-07-28T02:59:21;99946.44;;;17.66;100.00
3444;BME280;1736;52.068;6.968;2023-07-28T03:01:48;99951.78;;;17.66;100.00
3444;BME280;1736;52.068;6.968;2023-07-28T03:04:17;99948.56;;;17.71;100.00
3444;BME280;1736;52.068;6.968;2023-07-28T03:06:45;99957.03;;;17.74;100.00
3444;BME280;1736;52.068;6.968;2023-07-28T03:09:11;99960.75;;;17.73;100.00
3444;BME280;1736;52.068;6.968;2023-07-28T03:11:39;99958.81;;;17.67;100.00
3444;BME280;1736;52.068;6.968;2023-07-28T03:14:06;99957.88;;;17.75;100.00
3444;BME280;1736;52.068;6.968;2023-07-28T03:16:33;99972.69;;;17.71;100.00
3444;BME280;1736;52.068;6.968;2023-07-28T03:19:00;99968.09;;;17.65;100.00
3444;BME280;1736;52.068;6.968;2023-07-28T03:21:29;99963.44;;;17.73;100.00
3444;BME280;1736;52.068;6.968;2023-07-28T03:23:56;99966.69;;;17.69;100.00
3444;BME280;1736;52.068;6.968;2023-07-28T03:26:23;99971.22;;;17.68;100.00
3444;BME280;1736;52.068;6.968;2023-07-28T03:28:51;99972.22;;;17.67;100.00
3444;BME280;1736;52.068;6.968;2023-07-28T03:31:17;99976.59;;;17.68;100.00
3444;BME280;1736;52.068;6.968;2023-07-28T03:33:44;99975.94;;;17.66;100.00
3444;BME280;1736;52.068;6.968;2023-07-28T03:36:10;99970.75;;;17.65;100.00
3444;BME280;1736;52.068;6.968;2023-07-28T03:38:37;99961.44;;;17.61;100.00
3444;BME280;1736;52.068;6.968;2023-07-28T03:41:04;99971.34;;;17.60;100.00
3444;BME280;1736;52.068;6.968;2023-07-28T03:43:32;99974.47;;;17.64;100.00
3444;BME280;1736;52.068;6.968;2023-07-28T03:46:00;99969.22;;;17.56;100.00
3444;BME280;1736;52.068;6.968;2023-07-28T03:48:27;99971.34;;;17.60;100.00
3444;BME280;1736;52.068;6.968;2023-07-28T03:50:53;99986.06;;;17.64;100.00
3444;BME280;1736;52.068;6.968;2023-07-28T03:53:20;99976.91;;;17.59;100.00
3444;BME280;1736;52.068;6.968;2023-07-28T03:55:47;99979.41;;;17.60;100.00
3444;BME280;1736;52.068;6.968;2023-07-28T03:58:13;99983.38;;;17.64;100.00
3444;BME280;1736;52.068;6.968;2023-07-28T04:00:40;99983.63;;;17.69;100.00
3444;BME280;1736;52.068;6.968;2023-07-28T04:03:08;99992.69;;;17.68;100.00
3444;BME280;1736;52.068;6.968;2023-07-28T04:05:36;99988.88;;;17.77;100.00
3444;BME280;1736;52.068;6.968;2023-07-28T04:08:02;99993.13;;;17.72;100.00
3444;BME280;1736;52.068;6.968;2023-07-28T04:10:29;99993.50;;;17.69;100.00
3444;BME280;1736;52.068;6.968;2023-07-28T04:12:55;99993.69;;;17.67;100.00
3444;BME280;1736;52.068;6.968;2023-07-28T04:15:22;99990.19;;;17.67;100.00
3444;BME280;1736;52.068;6.968;2023-07-28T04:17:49;99994.34;;;17.69;100.00
3444;BME280;1736;52.068;6.968;2023-07-28T04:20:17;99988.50;;;17.80;100.00
3444;BME280;1736;52.068;6.968;2023-07-28T04:22:43;99990.63;;;17.70;100.00
3444;BME280;1736;52.068;6.968;2023-07-28T04:25:10;99993.78;;;17.74;100.00
3444;BME280;1736;52.068;6.968;2023-07-28T04:27:36;99992.56;;;17.76;100.00
3444;BME280;1736;52.068;6.968;2023-07-28T04:30:04;99998.31;;;17.73;100.00
3444;BME280;1736;52.068;6.968;2023-07-28T04:32:30;99997.47;;;17.73;100.00
3444;BME280;1736;52.068;6.968;2023-07-28T04:34:57;100001.19;;;17.72;100.00
3444;BME280;1736;52.068;6.968;2023-07-28T04:37:25;99996.91;;;17.77;100.00
3444;BME280;1736;52.068;6.968;2023-07-28T04:39:52;99998.75;;;17.77;100.00
3444;BME280;1736;52.068;6.968;2023-07-28T04:42:18;99998.56;;;17.78;100.00
3444;BME280;1736;52.068;6.968;2023-07-28T04:44:45;100004.59;;;17.80;100.00
3444;BME280;1736;52.068;6.968;2023-07-28T04:47:11;99998.56;;;17.78;100.00
3444;BME280;1736;52.068;6.968;2023-07-28T04:49:38;100002.41;;;17.90;100.00
3444;BME280;1736;52.068;6.968;2023-07-28T04:52:06;100010.59;;;17.82;100.00
3444;BME280;1736;52.068;6.968;2023-07-28T04:54:34;100011.88;;;17.86;100.00
3444;BME280;1736;52.068;6.968;2023-07-28T04:57:01;100005.75;;;17.92;100.00
3444;BME280;1736;52.068;6.968;2023-07-28T04:59:27;100009.38;;;17.85;100.00
3444;BME280;1736;52.068;6.968;2023-07-28T05:01:54;100007.78;;;17.90;100.00
3444;BME280;1736;52.068;6.968;2023-07-28T05:04:21;100005.28;;;17.89;100.00
3444;BME280;1736;52.068;6.968;2023-07-28T05:06:47;100012.13;;;17.91;100.00
3444;BME280;1736;52.068;6.968;2023-07-28T05:09:14;100009.84;;;17.88;100.00
3444;BME280;1736;52.068;6.968;2023-07-28T05:11:42;100010.47;;;17.90;100.00
3444;BME280;1736;52.068;6.968;2023-07-28T05:14:08;100016.88;;;17.89;100.00
3444;BME280;1736;52.068;6.968;2023-07-28T05:16:35;100025.94;;;17.88;100.00
3444;BME280;1736;52.068;6.968;2023-07-28T05:19:03;100019.28;;;17.84;100.00
3444;BME280;1736;52.068;6.968;2023-07-28T05:21:29;100020.66;;;17.95;100.00
3444;BME280;1736;52.068;6.968;2023-07-28T05:23:56;100014.81;;;17.91;100.00
3444;BME280;1736;52.068;6.968;2023-07-28T05:26:22;100016.56;;;17.99;100.00
3444;BME280;1736;52.068;6.968;2023-07-28T05:28:50;100024.00;;;18.03;100.00
3444;BME280;1736;52.068;6.968;2023-07-28T05:31:17;100022.72;;;17.99;100.00
3444;BME280;1736;52.068;6.968;2023-07-28T05:33:43;100027.09;;;18.00;100.00
3444;BME280;1736;52.068;6.968;2023-07-28T05:36:10;100028.56;;;18.03;100.00
3444;BME280;1736;52.068;6.968;2023-07-28T05:38:37;100028.38;;;18.04;100.00
3444;BME280;1736;52.068;6.968;2023-07-28T05:41:03;100032.34;;;18.08;100.00
3444;BME280;1736;52.068;6.968;2023-07-28T05:43:31;100032.13;;;18.10;100.00
3444;BME280;1736;52.068;6.968;2023-07-28T05:46:00;100028.38;;;18.04;100.00
3444;BME280;1736;52.068;6.968;2023-07-28T05:48:27;100039.56;;;18.08;100.00
3444;BME280;1736;52.068;6.968;2023-07-28T05:50:53;100030.94;;;18.12;100.00
3444;BME280;1736;52.068;6.968;2023-07-28T05:53:20;100040.28;;;18.16;100.00
3444;BME280;1736;52.068;6.968;2023-07-28T05:55:47;100035.78;;;18.23;100.00
3444;BME280;1736;52.068;6.968;2023-07-28T05:58:14;100037.72;;;18.29;100.00
3444;BME280;1736;52.068;6.968;2023-07-28T06:00:41;100045.47;;;18.39;100.00
3444;BME280;1736;52.068;6.968;2023-07-28T06:03:10;100039.06;;;18.40;100.00
3444;BME280;1736;52.068;6.968;2023-07-28T06:05:38;100050.06;;;18.45;100.00
3444;BME280;1736;52.068;6.968;2023-07-28T06:08:05;100053.41;;;18.47;100.00
3444;BME280;1736;52.068;6.968;2023-07-28T06:10:32;100059.19;;;18.50;100.00
3444;BME280;1736;52.068;6.968;2023-07-28T06:12:58;100056.53;;;18.50;100.00
3444;BME280;1736;52.068;6.968;2023-07-28T06:15:25;100053.44;;;18.53;100.00
3444;BME280;1736;52.068;6.968;2023-07-28T06:17:52;100062.28;;;18.47;100.00
3444;BME280;1736;52.068;6.968;2023-07-28T06:20:20;100065.41;;;18.51;100.00
3444;BME280;1736;52.068;6.968;2023-07-28T06:22:46;100068.44;;;18.41;100.00
3444;BME280;1736;52.068;6.968;2023-07-28T06:25:13;100078.53;;;18.39;100.00
3444;BME280;1736;52.068;6.968;2023-07-28T06:27:40;100075.31;;;18.50;100.00
3444;BME280;1736;52.068;6.968;2023-07-28T06:30:08;100069.94;;;18.50;100.00
3444;BME280;1736;52.068;6.968;2023-07-28T06:32:35;100067.84;;;18.46;100.00
3444;BME280;1736;52.068;6.968;2023-07-28T06:35:02;100075.94;;;18.52;100.00
3444;BME280;1736;52.068;6.968;2023-07-28T06:37:30;100069.56;;;18.53;100.00
3444;BME280;1736;52.068;6.968;2023-07-28T06:39:57;100077.44;;;18.55;100.00
3444;BME280;1736;52.068;6.968;2023-07-28T06:42:23;100076.69;;;18.67;100.00
3444;BME280;1736;52.068;6.968;2023-07-28T06:44:50;100085.19;;;18.71;100.00
3444;BME280;1736;52.068;6.968;2023-07-28T06:47:17;100086.41;;;18.68;100.00
3444;BME280;1736;52.068;6.968;2023-07-28T06:49:44;100091.38;;;18.65;100.00
3444;BME280;1736;52.068;6.968;2023-07-28T06:52:11;100081.03;;;18.68;100.00
3444;BME280;1736;52.068;6.968;2023-07-28T06:54:39;100084.56;;;18.69;100.00
3444;BME280;1736;52.068;6.968;2023-07-28T06:57:06;100096.41;;;18.74;100.00
3444;BME280;1736;52.068;6.968;2023-07-28T06:59:32;100099.16;;;18.81;100.00
3444;BME280;1736;52.068;6.968;2023-07-28T07:01:59;100103.88;;;18.79;100.00
3444;BME280;1736;52.068;6.968;2023-07-28T07:04:26;100107.22;;;18.81;100.00
3444;BME280;1736;52.068;6.968;2023-07-28T07:06:52;100105.22;;;18.89;100.00
3444;BME280;1736;52.068;6.968;2023-07-28T07:09:19;100105.47;;;18.94;100.00
3444;BME280;1736;52.068;6.968;2023-07-28T07:11:47;100107.41;;;18.79;100.00
3444;BME280;1736;52.068;6.968;2023-07-28T07:14:13;100121.34;;;18.89;100.00
3444;BME280;1736;52.068;6.968;2023-07-28T07:16:40;100119.06;;;18.86;100.00
3444;BME280;1736;52.068;6.968;2023-07-28T07:19:07;100123.06;;;18.97;100.00
3444;BME280;1736;52.068;6.968;2023-07-28T07:21:34;100127.44;;;19.04;100.00
3444;BME280;1736;52.068;6.968;2023-07-28T07:24:02;100131.56;;;19.00;100.00
3444;BME280;1736;52.068;6.968;2023-07-28T07:26:29;100135.81;;;18.88;100.00
3444;BME280;1736;52.068;6.968;2023-07-28T07:28:57;100131.94;;;18.97;100.00
3444;BME280;1736;52.068;6.968;2023-07-28T07:31:24;100132.72;;;18.91;100.00
3444;BME280;1736;52.068;6.968;2023-07-28T07:33:51;100136.44;;;18.90;100.00
3444;BME280;1736;52.068;6.968;2023-07-28T07:36:19;100136.22;;;18.85;100.00
3444;BME280;1736;52.068;6.968;2023-07-28T07:38:46;100147.63;;;18.94;100.00
3444;BME280;1736;52.068;6.968;2023-07-28T07:41:13;100148.63;;;18.86;100.00
3444;BME280;1736;52.068;6.968;2023-07-28T07:43:41;100150.19;;;19.02;100.00
3444;BME280;1736;52.068;6.968;2023-07-28T07:46:09;100153.66;;;18.96;100.00
3444;BME280;1736;52.068;6.968;2023-07-28T07:48:36;100157.28;;;19.09;100.00
3444;BME280;1736;52.068;6.968;2023-07-28T07:51:03;100160.50;;;18.98;100.00
3444;BME280;1736;52.068;6.968;2023-07-28T07:53:29;100159.03;;;18.96;100.00
3444;BME280;1736;52.068;6.968;2023-07-28T07:55:56;100159.00;;;18.89;100.00
3444;BME280;1736;52.068;6.968;2023-07-28T07:58:22;100161.78;;;19.02;100.00
3444;BME280;1736;52.068;6.968;2023-07-28T08:00:49;100163.25;;;19.05;100.00
3444;BME280;1736;52.068;6.968;2023-07-28T08:03:17;100158.63;;;19.20;100.00
3444;BME280;1736;52.068;6.968;2023-07-28T08:05:44;100163.16;;;19.19;100.00
3444;BME280;1736;52.068;6.968;2023-07-28T08:08:11;100165.09;;;19.04;100.00
3444;BME280;1736;52.068;6.968;2023-07-28T08:10:40;100170.97;;;19.14;100.00
3444;BME280;1736;52.068;6.968;2023-07-28T08:13:07;100168.88;;;19.10;100.00
3444;BME280;1736;52.068;6.968;2023-07-28T08:15:34;100177.59;;;19.12;100.00
3444;BME280;1736;52.068;6.968;2023-07-28T08:18:00;100183.53;;;19.28;100.00
3444;BME280;1736;52.068;6.968;2023-07-28T08:20:28;100183.91;;;19.25;100.00
3444;BME280;1736;52.068;6.968;2023-07-28T08:22:55;100185.38;;;19.28;100.00
3444;BME280;1736;52.068;6.968;2023-07-28T08:25:21;100179.41;;;19.32;100.00
3444;BME280;1736;52.068;6.968;2023-07-28T08:27:49;100170.81;;;19.43;100.00
3444;BME280;1736;52.068;6.968;2023-07-28T08:30:16;100177.47;;;19.47;100.00
3444;BME280;1736;52.068;6.968;2023-07-28T08:32:42;100174.28;;;19.37;100.00
3444;BME280;1736;52.068;6.968;2023-07-28T08:35:09;100183.91;;;19.53;100.00
3444;BME280;1736;52.068;6.968;2023-07-28T08:37:37;100189.53;;;19.58;100.00
3444;BME280;1736;52.068;6.968;2023-07-28T08:40:04;100191.41;;;19.64;100.00
3444;BME280;1736;52.068;6.968;2023-07-28T08:42:36;100180.09;;;19.75;100.00
3444;BME280;1736;52.068;6.968;2023-07-28T08:45:03;100185.72;;;19.80;100.00
3444;BME280;1736;52.068;6.968;2023-07-28T08:47:31;100189.94;;;19.96;100.00
3444;BME280;1736;52.068;6.968;2023-07-28T08:49:58;100190.53;;;19.91;100.00
3444;BME280;1736;52.068;6.968;2023-07-28T08:52:24;100195.56;;;20.01;100.00
3444;BME280;1736;52.068;6.968;2023-07-28T08:54:52;100196.53;;;19.93;100.00
3444;BME280;1736;52.068;6.968;2023-07-28T08:57:19;100191.16;;;19.93;100.00
3444;BME280;1736;52.068;6.968;2023-07-28T08:59:46;100192.88;;;20.01;100.00
3444;BME280;1736;52.068;6.968;2023-07-28T09:02:14;100203.00;;;19.98;100.00
3444;BME280;1736;52.068;6.968;2023-07-28T09:04:42;100200.94;;;20.01;100.00
3444;BME280;1736;52.068;6.968;2023-07-28T09:07:08;100195.66;;;20.14;100.00
3444;BME280;1736;52.068;6.968;2023-07-28T09:09:35;100192.34;;;20.12;100.00
3444;BME280;1736;52.068;6.968;2023-07-28T09:12:04;100196.72;;;20.26;100.00
3444;BME280;1736;52.068;6.968;2023-07-28T09:14:34;100199.03;;;20.35;100.00
3444;BME280;1736;52.068;6.968;2023-07-28T09:17:06;100189.75;;;20.44;100.00
3444;BME280;1736;52.068;6.968;2023-07-28T09:19:33;100204.06;;;20.51;100.00
3444;BME280;1736;52.068;6.968;2023-07-28T09:22:01;100207.38;;;20.60;100.00
3444;BME280;1736;52.068;6.968;2023-07-28T09:24:32;100200.16;;;20.60;100.00
3444;BME280;1736;52.068;6.968;2023-07-28T09:27:00;100206.63;;;20.85;100.00
3444;BME280;1736;52.068;6.968;2023-07-28T09:29:28;100207.03;;;20.89;100.00
3444;BME280;1736;52.068;6.968;2023-07-28T09:32:03;100208.06;;;20.88;100.00
3444;BME280;1736;52.068;6.968;2023-07-28T09:34:30;100215.75;;;20.84;100.00
3444;BME280;1736;52.068;6.968;2023-07-28T09:36:59;100220.06;;;20.66;100.00
3444;BME280;1736;52.068;6.968;2023-07-28T09:39:26;100263.19;;;20.59;100.00
3444;BME280;1736;52.068;6.968;2023-07-28T09:41:53;100265.94;;;20.79;100.00
3444;BME280;1736;52.068;6.968;2023-07-28T09:44:23;100210.34;;;20.91;100.00
3444;BME280;1736;52.068;6.968;2023-07-28T09:46:53;100217.47;;;21.24;100.00
3444;BME280;1736;52.068;6.968;2023-07-28T09:49:22;100214.53;;;21.13;100.00
3444;BME280;1736;52.068;6.968;2023-07-28T09:51:53;100213.91;;;21.37;100.00
3444;BME280;1736;52.068;6.968;2023-07-28T09:54:24;100220.78;;;21.39;100.00
3444;BME280;1736;52.068;6.968;2023-07-28T09:56:55;100228.28;;;21.24;100.00
3444;BME280;1736;52.068;6.968;2023-07-28T09:59:24;100222.44;;;21.14;100.00
3444;BME280;1736;52.068;6.968;2023-07-28T10:01:56;100221.19;;;21.04;100.00
3444;BME280;1736;52.068;6.968;2023-07-28T10:04:24;100222.22;;;21.09;100.00
3444;BME280;1736;52.068;6.968;2023-07-28T10:06:51;100231.56;;;21.33;100.00
3444;BME280;1736;52.068;6.968;2023-07-28T10:09:22;100235.13;;;21.33;100.00
3444;BME280;1736;52.068;6.968;2023-07-28T10:11:50;100241.75;;;21.44;100.00
3444;BME280;1736;52.068;6.968;2023-07-28T10:14:25;100238.22;;;21.43;100.00
3444;BME280;1736;52.068;6.968;2023-07-28T10:16:53;100236.97;;;21.20;100.00
3444;BME280;1736;52.068;6.968;2023-07-28T10:19:21;100238.63;;;21.21;100.00
3444;BME280;1736;52.068;6.968;2023-07-28T10:21:48;100236.13;;;21.00;100.00
3444;BME280;1736;52.068;6.968;2023-07-28T10:24:14;100239.66;;;21.33;100.00
3444;BME280;1736;52.068;6.968;2023-07-28T10:26:41;100242.78;;;21.43;100.00
3444;BME280;1736;52.068;6.968;2023-07-28T10:29:09;100238.41;;;21.09;100.00
3444;BME280;1736;52.068;6.968;2023-07-28T10:31:36;100241.88;;;20.84;100.00
3444;BME280;1736;52.068;6.968;2023-07-28T10:34:02;100246.91;;;20.93;100.00
3444;BME280;1736;52.068;6.968;2023-07-28T10:36:34;100237.59;;;21.15;100.00
3444;BME280;1736;52.068;6.968;2023-07-28T10:39:02;100238.41;;;21.22;100.00
3444;BME280;1736;52.068;6.968;2023-07-28T10:41:38;100237.81;;;21.40;100.00
3444;BME280;1736;52.068;6.968;2023-07-28T10:44:05;100241.53;;;21.45;100.00
3444;BME280;1736;52.068;6.968;2023-07-28T10:46:34;100243.00;;;21.41;100.00
3444;BME280;1736;52.068;6.968;2023-07-28T10:49:04;100238.00;;;21.51;100.00
3444;BME280;1736;52.068;6.968;2023-07-28T10:51:35;100245.69;;;21.61;100.00
3444;BME280;1736;52.068;6.968;2023-07-28T10:54:02;100244.84;;;21.80;100.00
3444;BME280;1736;52.068;6.968;2023-07-28T10:56:29;100243.34;;;21.97;100.00
3444;BME280;1736;52.068;6.968;2023-07-28T10:58:56;100239.00;;;21.70;100.00
3444;BME280;1736;52.068;6.968;2023-07-28T11:01:30;100243.97;;;22.05;98.54
3444;BME280;1736;52.068;6.968;2023-07-28T11:03:56;100251.31;;;22.49;96.38
3444;BME280;1736;52.068;6.968;2023-07-28T11:06:23;100253.56;;;22.45;97.50
3444;BME280;1736;52.068;6.968;2023-07-28T11:08:52;100254.75;;;22.69;96.63
3444;BME280;1736;52.068;6.968;2023-07-28T11:11:19;100258.28;;;22.63;96.16
3444;BME280;1736;52.068;6.968;2023-07-28T11:13:45;100254.13;;;22.67;96.05
3444;BME280;1736;52.068;6.968;2023-07-28T11:16:12;100252.28;;;22.98;94.42
3444;BME280;1736;52.068;6.968;2023-07-28T11:18:38;100251.78;;;23.39;92.95
3444;BME280;1736;52.068;6.968;2023-07-28T11:21:05;100242.28;;;23.30;93.36
3444;BME280;1736;52.068;6.968;2023-07-28T11:23:32;100246.84;;;23.29;91.96
3444;BME280;1736;52.068;6.968;2023-07-28T11:25:59;100237.47;;;23.56;89.92
3444;BME280;1736;52.068;6.968;2023-07-28T11:28:27;100243.69;;;23.57;87.32
3444;BME280;1736;52.068;6.968;2023-07-28T11:30:54;100238.69;;;23.36;84.07
3444;BME280;1736;52.068;6.968;2023-07-28T11:33:21;100246.31;;;23.70;82.86
3444;BME280;1736;52.068;6.968;2023-07-28T11:35:48;100245.03;;;23.72;88.54
3444;BME280;1736;52.068;6.968;2023-07-28T11:38:15;100244.72;;;23.80;81.29
3444;BME280;1736;52.068;6.968;2023-07-28T11:40:42;100235.78;;;24.34;89.12
3444;BME280;1736;52.068;6.968;2023-07-28T11:43:10;100238.91;;;24.38;81.70
3444;BME280;1736;52.068;6.968;2023-07-28T11:45:37;100240.44;;;24.45;78.90
3444;BME280;1736;52.068;6.968;2023-07-28T11:48:05;100243.16;;;24.45;78.88
3444;BME280;1736;52.068;6.968;2023-07-28T11:50:35;100245.59;;;24.17;85.29
3444;BME280;1736;52.068;6.968;2023-07-28T11:53:03;100240.09;;;24.05;87.46
3444;BME280;1736;52.068;6.968;2023-07-28T11:55:31;100323.84;;;23.89;87.38
3444;BME280;1736;52.068;6.968;2023-07-28T11:58:00;100233.38;;;23.90;88.30
3444;BME280;1736;52.068;6.968;2023-07-28T12:00:31;100237.03;;;24.02;87.55
3444;BME280;1736;52.068;6.968;2023-07-28T12:03:07;100231.06;;;24.30;86.88
3444;BME280;1736;52.068;6.968;2023-07-28T12:05:37;100367.75;;;24.22;85.72
3444;BME280;1736;52.068;6.968;2023-07-28T12:08:04;100237.41;;;24.05;86.52
3444;BME280;1736;52.068;6.968;2023-07-28T12:10:33;100286.09;;;24.30;87.74
3444;BME280;1736;52.068;6.968;2023-07-28T12:13:04;101772.28;;;24.17;83.58
3444;BME280;1736;52.068;6.968;2023-07-28T12:15:33;100657.63;;;24.30;85.00
3444;BME280;1736;52.068;6.968;2023-07-28T12:18:05;100222.41;;;24.39;82.56
3444;BME280;1736;52.068;6.968;2023-07-28T12:20:33;100230.53;;;24.39;84.75
3444;BME280;1736;52.068;6.968;2023-07-28T12:23:00;100228.75;;;24.45;82.11
3444;BME280;1736;52.068;6.968;2023-07-28T12:25:29;100232.63;;;24.37;74.74
3444;BME280;1736;52.068;6.968;2023-07-28T12:27:55;100227.00;;;24.21;78.58
3444;BME280;1736;52.068;6.968;2023-07-28T12:30:22;100227.66;;;24.34;77.50
3444;BME280;1736;52.068;6.968;2023-07-28T12:32:50;100396.00;;;24.75;82.58
3444;BME280;1736;52.068;6.968;2023-07-28T12:35:16;100519.41;;;24.48;80.66
3444;BME280;1736;52.068;6.968;2023-07-28T12:37:44;100338.94;;;24.64;80.65
3444;BME280;1736;52.068;6.968;2023-07-28T12:40:11;100229.09;;;24.84;80.00
3444;BME280;1736;52.068;6.968;2023-07-28T12:42:38;100232.69;;;24.96;80.05
3444;BME280;1736;52.068;6.968;2023-07-28T12:45:05;100221.38;;;25.22;77.73
3444;BME280;1736;52.068;6.968;2023-07-28T12:47:33;100228.97;;;25.20;79.21
3444;BME280;1736;52.068;6.968;2023-07-28T12:50:02;100216.38;;;25.37;78.15
3444;BME280;1736;52.068;6.968;2023-07-28T12:52:29;100234.13;;;25.22;76.35
3444;BME280;1736;52.068;6.968;2023-07-28T12:54:55;100232.94;;;25.18;76.22
3444;BME280;1736;52.068;6.968;2023-07-28T12:57:22;100238.22;;;25.01;76.86
3444;BME280;1736;52.068;6.968;2023-07-28T12:59:49;100231.28;;;25.05;77.77
3444;BME280;1736;52.068;6.968;2023-07-28T13:02:15;100237.91;;;25.09;77.81
3444;BME280;1736;52.068;6.968;2023-07-28T13:04:42;100242.56;;;24.91;79.06
3444;BME280;1736;52.068;6.968;2023-07-28T13:07:10;100238.22;;;25.01;79.59